Time;durP1;ratioP1;P1;durP2;ratioP2;P2;SDS_P1;SDS_P2;PMS_P1;PMS_P2;Temp;Humidity;BMP_temperature;BMP_pressure;BME280_temperature;BME280_humidity;BME280_pressure;Samples;Min_cycle;Max_cycle;Signal;HPM_P1;HPM_P2
2021/05/23 00:01:00;;;;;;;24.30;22.97;;;13.30;69.40;;;;;;5058185;28;20523;-76
2021/05/23 00:03:27;;;;;;;23.60;22.40;;;13.40;68.60;;;;;;5068088;28;20477;-76
2021/05/23 00:05:54;;;;;;;24.07;22.77;;;13.40;68.40;;;;;;5052874;28;21012;-76
2021/05/23 00:08:21;;;;;;;24.37;23.07;;;13.50;67.80;;;;;;5067949;28;20482;-76
2021/05/23 00:10:51;;;;;;;24.23;22.93;;;13.50;68.30;;;;;;5063225;28;20454;-76
2021/05/23 00:13:18;;;;;;;23.70;22.50;;;13.50;68.20;;;;;;5066971;28;20933;-76
2021/05/23 00:15:48;;;;;;;24.80;23.50;;;13.50;68.40;;;;;;5063492;28;20468;-76
2021/05/23 00:18:15;;;;;;;25.00;23.60;;;13.40;68.90;;;;;;5066293;28;20455;-76
2021/05/23 00:20:42;;;;;;;26.60;24.37;;;13.40;68.90;;;;;;5062947;28;20450;-76
2021/05/23 00:23:10;;;;;;;24.23;23.03;;;13.40;68.80;;;;;;5068457;28;20558;-76
2021/05/23 00:25:37;;;;;;;25.67;24.10;;;13.40;68.10;;;;;;5058862;27;20470;-75
2021/05/23 00:28:04;;;;;;;25.00;23.80;;;13.40;67.80;;;;;;5065351;28;20476;-75
2021/05/23 00:30:31;;;;;;;24.27;22.97;;;13.50;67.10;;;;;;5059514;28;20454;-76
2021/05/23 00:32:57;;;;;;;24.70;23.40;;;13.60;66.80;;;;;;5062606;28;20482;-76
2021/05/23 00:35:24;;;;;;;24.27;23.07;;;13.60;66.50;;;;;;5055436;28;20768;-76
2021/05/23 00:37:51;;;;;;;23.90;22.70;;;13.60;66.20;;;;;;5060386;28;20462;-75
2021/05/23 00:40:18;;;;;;;23.90;22.70;;;13.60;66.40;;;;;;5065815;28;20541;-75
2021/05/23 00:42:45;;;;;;;24.53;23.30;;;13.60;66.30;;;;;;5060263;28;20481;-75
2021/05/23 00:45:15;;;;;;;24.63;23.33;;;13.50;66.90;;;;;;5067670;28;21028;-75
2021/05/23 00:47:41;;;;;;;24.80;23.60;;;13.60;66.30;;;;;;5069452;28;20474;-75
2021/05/23 00:50:10;;;;;;;24.70;23.27;;;13.70;66.00;;;;;;5068903;28;20454;-75
2021/05/23 00:52:38;;;;;;;24.40;23.20;;;13.70;66.30;;;;;;5071341;28;20512;-75
2021/05/23 00:55:06;;;;;;;24.23;22.93;;;13.70;66.30;;;;;;5069052;28;20952;-76
2021/05/23 00:57:33;;;;;;;25.80;24.30;;;13.70;66.20;;;;;;5066853;28;20453;-76
2021/05/23 00:59:59;;;;;;;24.73;23.40;;;13.70;66.70;;;;;;5065258;28;20545;-76
2021/05/23 01:02:44;;;;;;;24.27;23.07;;;13.60;66.70;;;;;;5068523;28;20595;-76
2021/05/23 01:05:13;;;;;;;24.50;23.20;;;13.70;66.60;;;;;;5066084;28;20462;-76
2021/05/23 01:07:41;;;;;;;24.80;23.53;;;13.60;66.70;;;;;;5069452;28;20484;-76
2021/05/23 01:10:11;;;;;;;24.30;23.10;;;13.60;67.20;;;;;;5065918;28;20464;-76
2021/05/23 01:13:32;;;;;;;23.67;22.53;;;13.60;67.20;;;;;;5067182;28;21114;-76
2021/05/23 01:15:58;;;;;;;24.53;23.23;;;13.60;67.20;;;;;;5065090;28;20449;-76
2021/05/23 01:18:37;;;;;;;24.40;23.20;;;13.60;67.40;;;;;;5070302;28;20455;-76
2021/05/23 01:21:07;;;;;;;24.23;23.03;;;13.60;67.70;;;;;;5065097;28;20465;-76
2021/05/23 01:23:40;;;;;;;24.50;23.30;;;13.60;67.90;;;;;;5071794;28;20503;-76
2021/05/23 01:26:09;;;;;;;24.33;23.10;;;13.60;68.00;;;;;;5051937;28;20568;-76
2021/05/23 01:28:39;;;;;;;24.87;23.40;;;13.60;68.20;;;;;;5061507;28;20485;-75
2021/05/23 01:31:08;;;;;;;24.07;22.83;;;13.50;68.80;;;;;;5065925;28;20461;-75
2021/05/23 01:33:35;;;;;;;24.10;22.80;;;13.50;69.10;;;;;;5069639;28;20457;-75
2021/05/23 01:36:02;;;;;;;24.23;23.00;;;13.40;69.40;;;;;;5065260;28;21003;-75
2021/05/23 01:38:29;;;;;;;24.50;23.20;;;13.40;69.60;;;;;;5070805;28;20458;-75
2021/05/23 01:40:59;;;;;;;23.80;22.40;;;13.40;69.80;;;;;;5068283;28;20584;-76
2021/05/23 01:43:27;;;;;;;23.90;22.20;;;13.50;69.80;;;;;;5066816;28;21305;-75
2021/05/23 01:45:55;;;;;;;24.37;23.07;;;13.40;69.90;;;;;;5054618;28;20460;-75
2021/05/23 01:48:21;;;;;;;24.43;22.83;;;13.40;70.70;;;;;;5066499;28;20485;-76
2021/05/23 01:50:48;;;;;;;23.30;22.20;;;13.50;69.70;;;;;;5063901;28;20554;-75
2021/05/23 01:53:14;;;;;;;23.33;22.13;;;13.50;69.70;;;;;;5051107;28;20470;-76
2021/05/23 01:55:41;;;;;;;23.70;22.50;;;13.40;69.90;;;;;;5059060;27;21225;-76
2021/05/23 01:58:08;;;;;;;23.63;22.20;;;13.40;70.00;;;;;;5069403;28;20458;-76
2021/05/23 02:00:37;;;;;;;24.17;22.97;;;13.30;70.40;;;;;;5066649;28;20890;-75
2021/05/23 02:03:06;;;;;;;24.00;22.73;;;13.20;70.60;;;;;;5050982;28;21045;-76
2021/05/23 02:05:34;;;;;;;24.00;22.80;;;13.20;70.70;;;;;;5054360;28;20478;-75
2021/05/23 02:08:01;;;;;;;23.83;22.63;;;13.20;70.60;;;;;;5069758;28;20900;-75
2021/05/23 02:10:28;;;;;;;23.90;22.57;;;13.30;70.70;;;;;;5068612;28;20978;-75
2021/05/23 02:12:57;;;;;;;24.93;23.50;;;13.30;70.50;;;;;;5068845;28;20488;-75
2021/05/23 02:15:24;;;;;;;24.80;23.40;;;13.20;71.00;;;;;;5066558;28;20484;-75
2021/05/23 02:17:51;;;;;;;23.80;22.47;;;13.10;71.20;;;;;;5069705;28;20457;-75
2021/05/23 02:20:19;;;;;;;23.93;22.67;;;13.20;71.30;;;;;;5061792;28;20461;-76
2021/05/23 02:22:48;;;;;;;23.77;22.57;;;13.10;71.40;;;;;;5070150;28;20502;-76
2021/05/23 02:25:16;;;;;;;25.27;23.77;;;13.20;71.50;;;;;;5053077;28;20975;-76
2021/05/23 02:27:45;;;;;;;24.60;23.40;;;13.10;71.90;;;;;;5068505;28;20497;-76
2021/05/23 02:30:14;;;;;;;23.20;22.00;;;13.10;72.70;;;;;;5057866;28;20541;-76
2021/05/23 02:32:40;;;;;;;23.10;22.00;;;13.00;74.60;;;;;;5066540;28;20923;-75
2021/05/23 02:35:10;;;;;;;23.27;22.07;;;12.80;74.30;;;;;;5067053;28;20934;-76
2021/05/23 02:37:37;;;;;;;23.13;22.03;;;12.50;76.20;;;;;;5055066;28;20550;-75
2021/05/23 02:40:06;;;;;;;21.60;20.60;;;12.20;77.60;;;;;;5068781;28;20561;-75
2021/05/23 02:42:33;;;;;;;22.50;21.40;;;12.10;78.40;;;;;;5068011;28;20481;-75
2021/05/23 02:44:59;;;;;;;22.13;21.10;;;11.80;79.50;;;;;;5067277;28;20952;-75
2021/05/23 02:47:26;;;;;;;21.50;20.33;;;11.80;81.00;;;;;;5067054;28;20478;-76
2021/05/23 02:49:52;;;;;;;20.90;19.80;;;11.80;81.40;;;;;;5068048;28;20920;-75
2021/05/23 02:52:20;;;;;;;21.47;20.30;;;11.60;81.60;;;;;;5065541;28;20477;-75
2021/05/23 02:54:46;;;;;;;20.83;19.80;;;11.70;82.40;;;;;;5065533;28;20545;-76
2021/05/23 02:57:12;;;;;;;21.13;20.10;;;11.70;82.30;;;;;;5053245;28;20588;-75
2021/05/23 02:59:39;;;;;;;20.33;19.43;;;11.70;82.40;;;;;;5062817;28;20546;-76
2021/05/23 03:02:05;;;;;;;20.60;19.70;;;11.70;82.80;;;;;;5065223;28;20480;-76
2021/05/23 03:04:32;;;;;;;20.37;19.30;;;11.60;82.80;;;;;;5068159;28;20462;-76
2021/05/23 03:06:59;;;;;;;20.53;19.63;;;11.70;83.30;;;;;;5052955;28;21079;-76
2021/05/23 03:09:26;;;;;;;20.63;19.60;;;11.70;82.10;;;;;;5061434;28;20476;-76
2021/05/23 03:11:53;;;;;;;20.43;19.23;;;11.60;82.50;;;;;;5066028;28;20576;-76
2021/05/23 03:14:20;;;;;;;20.17;19.20;;;11.50;83.30;;;;;;5068376;28;20824;-75
2021/05/23 03:16:46;;;;;;;19.47;18.57;;;11.50;82.50;;;;;;5065740;28;20464;-75
2021/05/23 03:19:13;;;;;;;23.90;21.87;;;11.50;82.90;;;;;;5066670;28;20901;-76
2021/05/23 03:21:40;;;;;;;81.23;30.63;;;11.40;83.80;;;;;;5064736;28;21065;-76
2021/05/23 03:24:07;;;;;;;21.20;20.10;;;11.30;83.50;;;;;;5068828;28;20456;-75
2021/05/23 03:26:34;;;;;;;20.57;19.47;;;11.30;82.40;;;;;;5064196;27;20511;-75
2021/05/23 03:29:01;;;;;;;25.33;23.02;;;11.20;82.80;;;;;;5057725;28;20471;-75
2021/05/23 03:31:27;;;;;;;20.50;19.50;;;11.10;82.70;;;;;;5060849;28;20212;-76
2021/05/23 03:33:54;;;;;;;26.83;21.80;;;11.20;83.00;;;;;;5066621;28;20229;-75
2021/05/23 03:36:20;;;;;;;21.40;20.30;;;11.00;84.20;;;;;;5063877;28;20462;-75
2021/05/23 03:38:48;;;;;;;20.40;19.40;;;11.00;83.50;;;;;;5057664;28;20454;-75
2021/05/23 03:41:15;;;;;;;20.60;19.60;;;11.10;83.10;;;;;;5063423;28;20748;-75
2021/05/23 03:43:43;;;;;;;20.55;19.55;;;11.10;82.80;;;;;;5068426;28;20196;-75
2021/05/23 03:46:09;;;;;;;23.47;21.67;;;11.10;83.00;;;;;;5059864;28;20643;-75
2021/05/23 03:48:36;;;;;;;83.50;32.93;;;11.10;84.20;;;;;;5049168;28;20474;-75
2021/05/23 03:51:02;;;;;;;25.02;22.38;;;11.10;83.50;;;;;;5059937;28;20544;-75
2021/05/23 03:53:29;;;;;;;20.73;19.57;;;11.10;83.50;;;;;;5069501;28;20630;-75
2021/05/23 03:55:55;;;;;;;23.90;21.97;;;11.20;82.80;;;;;;5053860;28;20466;-75
2021/05/23 03:58:22;;;;;;;21.13;19.87;;;11.20;82.70;;;;;;5058262;28;20967;-75
2021/05/23 04:00:49;;;;;;;21.70;19.90;;;11.20;82.80;;;;;;5056375;28;20454;-75
2021/05/23 04:03:15;;;;;;;22.17;20.67;;;11.20;83.10;;;;;;5067414;28;20555;-75
2021/05/23 04:05:42;;;;;;;20.53;19.63;;;11.10;82.80;;;;;;5063560;28;20291;-75
2021/05/23 04:08:08;;;;;;;20.90;19.90;;;11.10;83.20;;;;;;5068138;28;20482;-75
2021/05/23 04:10:37;;;;;;;20.73;19.70;;;11.10;83.10;;;;;;5064425;28;20305;-75
2021/05/23 04:13:06;;;;;;;20.70;19.70;;;11.20;84.20;;;;;;5067561;28;20994;-75
2021/05/23 04:15:33;;;;;;;20.75;19.75;;;11.20;83.50;;;;;;5063416;28;20517;-75
2021/05/23 04:18:00;;;;;;;20.00;19.10;;;11.30;83.00;;;;;;5064334;28;20245;-75
2021/05/23 04:20:28;;;;;;;21.43;19.87;;;11.30;82.90;;;;;;5066169;28;20468;-76
2021/05/23 04:22:55;;;;;;;21.37;19.90;;;11.20;83.50;;;;;;5067562;28;20885;-75
2021/05/23 04:25:23;;;;;;;21.00;19.53;;;11.30;83.20;;;;;;5064453;28;21038;-75
2021/05/23 04:27:51;;;;;;;21.60;20.00;;;11.20;83.50;;;;;;5065575;28;20548;-76
2021/05/23 04:30:20;;;;;;;20.53;19.40;;;11.30;83.00;;;;;;5065342;28;20464;-76
2021/05/23 04:32:47;;;;;;;38.37;25.40;;;11.30;82.90;;;;;;5061737;27;20589;-76
2021/05/23 04:35:15;;;;;;;21.30;20.00;;;11.30;83.00;;;;;;5065109;28;20454;-75
2021/05/23 04:37:42;;;;;;;21.00;19.80;;;11.40;82.90;;;;;;5066083;28;20450;-75
2021/05/23 04:40:10;;;;;;;20.60;19.60;;;11.40;83.00;;;;;;5066082;28;20469;-75
2021/05/23 04:42:37;;;;;;;20.37;19.00;;;11.50;83.40;;;;;;5064782;28;20562;-76
2021/05/23 04:45:04;;;;;;;20.63;19.63;;;11.50;83.10;;;;;;5065189;28;20458;-74
2021/05/23 04:47:30;;;;;;;21.10;20.10;;;11.60;82.80;;;;;;5061844;28;20478;-77
2021/05/23 04:49:57;;;;;;;26.03;20.73;;;11.60;82.60;;;;;;5058516;28;20519;-77
2021/05/23 04:52:24;;;;;;;22.87;21.40;;;11.70;82.30;;;;;;5066380;28;20535;-76
2021/05/23 04:54:51;;;;;;;21.43;20.33;;;11.70;82.20;;;;;;5064971;28;20458;-73
2021/05/23 04:57:17;;;;;;;21.93;20.50;;;11.80;81.60;;;;;;5065793;27;20459;-74
2021/05/23 04:59:44;;;;;;;21.97;20.67;;;11.90;81.50;;;;;;5065127;28;20553;-75
2021/05/23 05:02:10;;;;;;;23.63;22.43;;;11.90;81.70;;;;;;5065723;28;20470;-75
2021/05/23 05:04:37;;;;;;;21.40;20.30;;;11.90;81.70;;;;;;5064360;28;20497;-75
2021/05/23 05:07:04;;;;;;;21.13;20.13;;;11.90;81.80;;;;;;5051102;28;20570;-75
2021/05/23 05:09:31;;;;;;;22.70;21.07;;;12.00;81.30;;;;;;5050637;28;20937;-74
2021/05/23 05:11:57;;;;;;;23.40;21.90;;;12.10;81.20;;;;;;5053268;28;20570;-75
2021/05/23 05:14:24;;;;;;;22.27;20.93;;;12.00;81.50;;;;;;5065852;28;20490;-75
2021/05/23 05:16:51;;;;;;;32.33;23.93;;;12.10;80.70;;;;;;5054719;28;20980;-74
2021/05/23 05:19:17;;;;;;;25.17;22.47;;;12.20;81.00;;;;;;5063247;27;20458;-75
2021/05/23 05:21:44;;;;;;;23.53;21.57;;;12.20;81.50;;;;;;5066893;28;20478;-75
2021/05/23 05:24:10;;;;;;;21.93;20.90;;;12.30;80.70;;;;;;5058962;28;20458;-75
2021/05/23 05:26:38;;;;;;;26.53;23.83;;;12.40;80.60;;;;;;5065281;28;20511;-76
2021/05/23 05:29:05;;;;;;;26.97;24.10;;;12.40;80.10;;;;;;5066266;28;20568;-75
2021/05/23 05:31:32;;;;;;;22.27;20.97;;;12.40;80.10;;;;;;5060305;28;20576;-75
2021/05/23 05:33:58;;;;;;;37.33;26.93;;;12.60;80.20;;;;;;5067285;28;20568;-75
2021/05/23 05:36:24;;;;;;;23.73;22.43;;;12.70;79.40;;;;;;5068134;28;21043;-75
2021/05/23 05:38:51;;;;;;;23.60;22.20;;;12.80;79.00;;;;;;5069394;28;20477;-75
2021/05/23 05:41:19;;;;;;;24.77;23.17;;;12.90;78.80;;;;;;5069325;28;20891;-75
2021/05/23 05:43:46;;;;;;;26.27;23.77;;;12.90;78.90;;;;;;5070055;28;20451;-75
2021/05/23 05:46:13;;;;;;;24.00;22.30;;;13.10;78.50;;;;;;5066330;27;21205;-75
2021/05/23 05:48:39;;;;;;;26.63;24.50;;;13.10;78.80;;;;;;5067882;28;20477;-74
2021/05/23 05:51:06;;;;;;;23.70;22.40;;;13.00;78.90;;;;;;5061614;28;20541;-75
2021/05/23 05:53:33;;;;;;;22.27;21.17;;;13.00;78.90;;;;;;5063203;28;21044;-75
2021/05/23 05:56:00;;;;;;;21.83;20.80;;;13.10;78.60;;;;;;5058570;28;20581;-75
2021/05/23 05:58:26;;;;;;;22.60;21.37;;;13.10;78.70;;;;;;5069253;28;20455;-75
2021/05/23 06:00:54;;;;;;;22.37;21.07;;;13.30;78.70;;;;;;5060834;28;20469;-76
2021/05/23 06:03:20;;;;;;;23.07;21.97;;;13.30;78.40;;;;;;5052761;28;20504;-76
2021/05/23 06:05:47;;;;;;;22.13;21.07;;;13.40;78.10;;;;;;5068801;28;20472;-76
2021/05/23 06:08:13;;;;;;;24.40;23.10;;;13.50;78.10;;;;;;5058662;28;20479;-75
2021/05/23 06:10:40;;;;;;;28.40;26.20;;;13.50;78.00;;;;;;5067696;28;20933;-75
2021/05/23 06:13:06;;;;;;;22.43;21.23;;;13.50;78.40;;;;;;5068503;28;20897;-76
2021/05/23 06:15:33;;;;;;;23.67;22.47;;;13.50;78.60;;;;;;5065578;28;20467;-76
2021/05/23 06:18:00;;;;;;;23.10;21.90;;;13.60;77.60;;;;;;5057118;28;20553;-76
2021/05/23 06:20:27;;;;;;;23.27;22.07;;;13.70;77.10;;;;;;5066955;28;21048;-76
2021/05/23 06:22:53;;;;;;;22.70;21.57;;;13.80;77.20;;;;;;5065896;28;20482;-76
2021/05/23 06:25:20;;;;;;;23.67;22.40;;;14.00;76.20;;;;;;5063263;28;20493;-76
2021/05/23 06:27:46;;;;;;;23.23;21.90;;;14.00;75.80;;;;;;5055271;28;20556;-76
2021/05/23 06:30:14;;;;;;;25.57;24.17;;;14.00;75.10;;;;;;5065120;28;20497;-76
2021/05/23 06:32:40;;;;;;;24.70;23.30;;;14.00;75.20;;;;;;5054083;28;20484;-76
2021/05/23 06:35:10;;;;;;;23.70;22.47;;;14.20;74.50;;;;;;5069707;28;20469;-77
2021/05/23 06:37:36;;;;;;;47.53;28.70;;;14.40;73.90;;;;;;5066344;28;20492;-76
2021/05/23 06:40:04;;;;;;;23.47;22.07;;;14.30;74.90;;;;;;5068598;28;20472;-76
2021/05/23 06:42:30;;;;;;;23.90;22.50;;;14.40;74.70;;;;;;5051669;28;20473;-76
2021/05/23 06:44:57;;;;;;;28.00;25.83;;;14.60;73.60;;;;;;5053309;28;20458;-76
2021/05/23 06:47:23;;;;;;;59.77;32.90;;;14.70;72.30;;;;;;5063341;28;20968;-77
2021/05/23 06:49:50;;;;;;;36.10;24.23;;;14.60;72.10;;;;;;5067808;28;20457;-77
2021/05/23 06:52:17;;;;;;;28.63;24.57;;;14.50;73.30;;;;;;5057434;28;20995;-75
2021/05/23 06:54:43;;;;;;;25.93;23.90;;;14.50;73.10;;;;;;5059810;28;20449;-76
2021/05/23 06:57:10;;;;;;;33.03;25.53;;;14.60;73.10;;;;;;5067401;28;20631;-76
2021/05/23 06:59:36;;;;;;;24.00;22.33;;;14.70;72.20;;;;;;5068443;28;20469;-76
2021/05/23 07:02:02;;;;;;;22.90;21.70;;;14.70;72.50;;;;;;5067100;28;20478;-76
2021/05/23 07:04:29;;;;;;;24.50;23.13;;;15.10;70.60;;;;;;5068912;28;20595;-76
2021/05/23 07:06:55;;;;;;;23.40;22.17;;;15.40;70.00;;;;;;5052907;28;20506;-76
2021/05/23 07:09:22;;;;;;;25.43;23.83;;;15.50;69.40;;;;;;5065836;28;20514;-76
2021/05/23 07:11:49;;;;;;;91.77;37.43;;;15.70;68.60;;;;;;5066951;28;20569;-75
2021/05/23 07:14:15;;;;;;;32.37;25.87;;;15.70;68.70;;;;;;5068082;28;20462;-74
2021/05/23 07:16:42;;;;;;;23.10;21.80;;;15.40;69.30;;;;;;5055734;27;21019;-76
2021/05/23 07:19:08;;;;;;;22.97;21.57;;;15.40;68.80;;;;;;5052350;28;20462;-77
2021/05/23 07:21:35;;;;;;;22.80;21.50;;;15.40;68.50;;;;;;5060875;28;20554;-77
2021/05/23 07:24:01;;;;;;;23.97;22.57;;;15.50;68.50;;;;;;5063630;28;20462;-74
2021/05/23 07:26:28;;;;;;;489.67;98.17;;;15.70;68.10;;;;;;5059472;28;20455;-76
2021/05/23 07:28:55;;;;;;;36.90;26.70;;;16.00;67.60;;;;;;5061705;28;20478;-77
2021/05/23 07:31:21;;;;;;;24.10;22.33;;;16.20;66.60;;;;;;5067279;28;20486;-75
2021/05/23 07:33:48;;;;;;;22.90;21.60;;;16.10;67.10;;;;;;5067577;28;20517;-76
2021/05/23 07:36:14;;;;;;;23.10;21.90;;;15.90;66.60;;;;;;5063330;28;20844;-77
2021/05/23 07:38:41;;;;;;;23.83;22.63;;;15.90;67.20;;;;;;5067660;28;20535;-77
2021/05/23 07:41:08;;;;;;;24.27;22.77;;;16.00;66.70;;;;;;5066331;28;20465;-77
2021/05/23 07:43:35;;;;;;;25.83;24.00;;;15.90;66.10;;;;;;5066928;28;20538;-76
2021/05/23 07:46:01;;;;;;;27.70;26.00;;;15.80;66.90;;;;;;5056228;28;20573;-73
2021/05/23 07:48:28;;;;;;;23.03;21.93;;;15.50;67.70;;;;;;5065705;28;20466;-74
2021/05/23 07:50:54;;;;;;;23.90;22.70;;;14.10;66.70;;;;;;5066244;28;20507;-75
2021/05/23 07:53:20;;;;;;;23.30;22.10;;;12.50;70.90;;;;;;5067208;28;20505;-77
2021/05/23 07:55:47;;;;;;;25.90;24.60;;;11.30;74.10;;;;;;5064965;28;20465;-74
2021/05/23 07:58:13;;;;;;;23.77;22.25;;;10.90;76.90;;;;;;5059190;28;20501;-77
2021/05/23 08:00:41;;;;;;;25.80;23.47;;;10.80;79.00;;;;;;5064963;28;20873;-78
2021/05/23 08:03:07;;;;;;;20.98;19.77;;;11.00;80.50;;;;;;5067670;28;20843;-79
2021/05/23 08:05:34;;;;;;;21.30;20.20;;;11.10;80.40;;;;;;5060590;28;20209;-78
2021/05/23 08:08:00;;;;;;;21.50;20.40;;;11.20;81.10;;;;;;5064793;28;20232;-77
2021/05/23 08:10:27;;;;;;;21.73;20.52;;;11.40;81.50;;;;;;5058054;28;20738;-77
2021/05/23 08:12:54;;;;;;;20.10;19.10;;;11.50;82.00;;;;;;5052913;28;20212;-78
2021/05/23 08:15:20;;;;;;;26.47;25.17;;;11.50;82.40;;;;;;5066083;28;20507;-76
2021/05/23 08:17:50;;;;;;;21.37;20.37;;;11.70;81.50;;;;;;5050439;28;20474;-77
2021/05/23 08:20:17;;;;;;;22.60;21.40;;;12.00;79.80;;;;;;5063383;28;20450;-79
2021/05/23 08:22:43;;;;;;;21.10;20.10;;;12.20;79.70;;;;;;5069434;28;20474;-76
2021/05/23 08:25:11;;;;;;;24.80;23.60;;;12.40;79.40;;;;;;5064388;28;20490;-76
2021/05/23 08:27:37;;;;;;;22.90;21.70;;;12.60;79.30;;;;;;5068645;28;20462;-77
2021/05/23 08:30:05;;;;;;;21.50;20.50;;;12.80;79.20;;;;;;5065806;28;20461;-77
2021/05/23 08:32:31;;;;;;;22.60;21.40;;;13.00;77.90;;;;;;5065872;28;20542;-77
2021/05/23 08:34:59;;;;;;;22.00;20.90;;;13.20;77.80;;;;;;5070609;28;20533;-80
2021/05/23 08:37:26;;;;;;;23.47;21.43;;;13.50;77.70;;;;;;5061544;28;20546;-77
2021/05/23 08:39:52;;;;;;;23.40;22.00;;;13.90;76.70;;;;;;5064754;28;20943;-78
2021/05/23 08:42:19;;;;;;;22.10;21.00;;;14.30;75.20;;;;;;5062450;28;20470;-78
2021/05/23 08:44:45;;;;;;;23.10;21.80;;;14.70;69.80;;;;;;5055271;28;21036;-78
2021/05/23 08:47:14;;;;;;;23.77;22.37;;;14.90;68.90;;;;;;5057683;28;20470;-78
2021/05/23 08:49:41;;;;;;;24.23;22.93;;;15.20;69.20;;;;;;5064937;28;20593;-78
2021/05/23 08:52:08;;;;;;;23.30;21.80;;;15.30;62.60;;;;;;5062379;28;20505;-78
2021/05/23 08:54:41;;;;;;;22.73;21.43;;;15.20;63.70;;;;;;5055043;28;20478;-78
2021/05/23 08:57:08;;;;;;;23.60;22.30;;;15.50;64.50;;;;;;5062441;28;20457;-78
2021/05/23 08:59:35;;;;;;;22.53;21.33;;;15.90;65.00;;;;;;5065237;28;20466;-78
2021/05/23 09:02:06;;;;;;;24.73;23.43;;;16.20;62.20;;;;;;5061614;28;20470;-77
2021/05/23 09:04:32;;;;;;;23.47;22.17;;;16.40;61.70;;;;;;5065371;28;20500;-77
2021/05/23 09:07:01;;;;;;;22.50;21.23;;;16.70;60.70;;;;;;5062368;28;20479;-77
2021/05/23 09:09:29;;;;;;;23.00;21.70;;;16.70;59.90;;;;;;5070019;28;20477;-78
2021/05/23 09:12:01;;;;;;;23.97;22.67;;;16.70;59.90;;;;;;5056736;28;20551;-82
2021/05/23 09:14:31;;;;;;;23.53;21.93;;;16.90;60.40;;;;;;5067369;28;20559;-78
2021/05/23 09:16:58;;;;;;;23.40;22.20;;;17.10;58.00;;;;;;5067165;28;20941;-79
2021/05/23 09:19:26;;;;;;;23.43;22.03;;;16.80;59.60;;;;;;5057647;28;20546;-78
2021/05/23 09:21:52;;;;;;;23.00;21.60;;;16.20;62.80;;;;;;5060887;28;20474;-78
2021/05/23 09:24:19;;;;;;;24.53;22.80;;;15.50;64.40;;;;;;5070687;28;20552;-79
2021/05/23 09:26:49;;;;;;;23.10;21.90;;;15.10;66.30;;;;;;5065117;28;20454;-79
2021/05/23 09:29:18;;;;;;;23.60;22.30;;;15.10;66.60;;;;;;5061997;28;20999;-79
2021/05/23 09:31:47;;;;;;;22.73;21.63;;;15.00;66.60;;;;;;5065171;28;20497;-79
2021/05/23 09:34:21;;;;;;;24.00;22.60;;;14.70;67.10;;;;;;5071207;28;20512;-79
2021/05/23 09:36:49;;;;;;;23.47;21.97;;;14.50;67.80;;;;;;5060311;28;20534;-78
2021/05/23 09:39:16;;;;;;;25.63;24.30;;;14.30;68.30;;;;;;5062095;28;20458;-78
2021/05/23 09:41:43;;;;;;;23.80;22.50;;;14.30;67.20;;;;;;5068241;28;20481;-79
2021/05/23 09:44:13;;;;;;;22.90;21.60;;;14.40;67.30;;;;;;5072848;28;20459;-78
2021/05/23 09:46:50;;;;;;;22.23;21.03;;;14.40;65.70;;;;;;5067273;28;20466;-79
2021/05/23 09:49:17;;;;;;;31.70;30.00;;;14.30;67.40;;;;;;5066929;28;20585;-78
2021/05/23 09:51:50;;;;;;;22.40;21.20;;;14.10;68.20;;;;;;5068114;28;20520;-79
2021/05/23 09:54:16;;;;;;;23.17;21.70;;;14.10;68.50;;;;;;5051084;28;20462;-79
2021/05/23 09:56:43;;;;;;;23.57;21.97;;;14.20;67.80;;;;;;5057018;28;20462;-79
2021/05/23 09:59:20;;;;;;;41.80;28.47;;;14.50;68.50;;;;;;5069061;28;20461;-78
2021/05/23 10:01:46;;;;;;;23.00;21.73;;;14.70;68.20;;;;;;5062659;28;20493;-78
2021/05/23 10:04:20;;;;;;;22.73;21.63;;;15.10;67.70;;;;;;5068323;28;20878;-78
2021/05/23 10:06:58;;;;;;;22.70;21.50;;;15.30;66.50;;;;;;5062675;28;20458;-79
2021/05/23 10:09:26;;;;;;;22.40;21.20;;;15.70;64.70;;;;;;5062915;28;20778;-78
2021/05/23 10:11:52;;;;;;;21.80;20.70;;;15.80;63.30;;;;;;5064455;28;20920;-78
2021/05/23 10:14:20;;;;;;;22.93;21.50;;;15.80;63.70;;;;;;5056467;28;20541;-78
2021/05/23 10:16:50;;;;;;;22.87;21.77;;;16.00;63.40;;;;;;5064146;28;20458;-79
2021/05/23 10:19:19;;;;;;;22.30;21.10;;;16.10;62.50;;;;;;5068757;28;20454;-79
2021/05/23 10:21:47;;;;;;;22.00;20.90;;;16.20;62.20;;;;;;5061359;28;20485;-79
2021/05/23 10:24:22;;;;;;;22.63;21.47;;;16.40;61.20;;;;;;5066332;28;20462;-79
2021/05/23 10:26:53;;;;;;;22.90;21.67;;;16.50;62.20;;;;;;5067677;28;20595;-79
2021/05/23 10:29:21;;;;;;;23.93;22.63;;;16.70;59.50;;;;;;5060317;28;20478;-79
2021/05/23 10:31:48;;;;;;;24.43;23.13;;;16.80;58.70;;;;;;5057966;28;20474;-78
2021/05/23 10:34:15;;;;;;;23.20;22.00;;;16.80;58.20;;;;;;5069574;28;21046;-78
2021/05/23 10:36:43;;;;;;;23.00;21.90;;;16.90;59.20;;;;;;5059066;28;21836;-78
2021/05/23 10:39:11;;;;;;;24.40;23.00;;;17.30;56.80;;;;;;5068605;28;20976;-78
2021/05/23 10:41:38;;;;;;;22.87;21.70;;;17.50;54.70;;;;;;5066692;28;20796;-78
2021/05/23 10:44:07;;;;;;;22.40;21.30;;;17.80;55.00;;;;;;5064474;28;20567;-78
2021/05/23 10:46:45;;;;;;;22.70;21.50;;;17.90;53.00;;;;;;5054758;28;20458;-78
2021/05/23 10:49:12;;;;;;;22.20;21.10;;;17.80;51.60;;;;;;5064050;28;20576;-78
2021/05/23 10:51:39;;;;;;;23.27;21.97;;;17.80;52.80;;;;;;5067416;28;20579;-78
2021/05/23 10:54:14;;;;;;;25.50;23.20;;;17.70;53.40;;;;;;5069098;28;20495;-78
2021/05/23 10:56:41;;;;;;;24.67;23.27;;;17.70;53.60;;;;;;5062631;28;20524;-78
2021/05/23 10:59:09;;;;;;;23.10;21.80;;;17.90;54.00;;;;;;5066639;28;20902;-79
2021/05/23 11:01:40;;;;;;;22.90;21.67;;;18.10;53.40;;;;;;5065471;28;20491;-78
2021/05/23 11:04:13;;;;;;;22.70;21.50;;;17.90;53.30;;;;;;5069061;28;20457;-78
2021/05/23 11:06:42;;;;;;;23.23;21.93;;;17.90;53.30;;;;;;5058108;28;22056;-78
2021/05/23 11:09:11;;;;;;;22.97;21.57;;;17.60;53.10;;;;;;5058060;28;20494;-78
2021/05/23 11:11:38;;;;;;;23.10;21.80;;;17.60;53.30;;;;;;5051566;28;20475;-78
2021/05/23 11:14:21;;;;;;;23.50;22.20;;;17.60;54.20;;;;;;5064706;28;20955;-78
2021/05/23 11:16:49;;;;;;;24.23;22.90;;;17.50;55.40;;;;;;5060556;28;20454;-78
2021/05/23 11:19:18;;;;;;;23.80;22.50;;;17.50;56.00;;;;;;5060155;28;20526;-78
2021/05/23 11:21:45;;;;;;;25.43;23.37;;;17.40;56.20;;;;;;5062928;28;20570;-79
2021/05/23 11:24:12;;;;;;;23.27;22.07;;;17.40;56.60;;;;;;5066071;28;20456;-79
2021/05/23 11:26:39;;;;;;;22.53;21.33;;;17.60;57.30;;;;;;5063377;28;20516;-79
2021/05/23 11:29:08;;;;;;;30.07;28.67;;;17.80;56.40;;;;;;5063131;28;21267;-79
2021/05/23 11:31:36;;;;;;;24.67;22.73;;;18.10;56.10;;;;;;5066098;28;20481;-79
2021/05/23 11:34:04;;;;;;;22.33;21.03;;;18.40;54.10;;;;;;5065903;28;20529;-78
2021/05/23 11:36:34;;;;;;;22.10;21.00;;;18.50;53.90;;;;;;5064107;28;20465;-81
2021/05/23 11:39:03;;;;;;;22.53;21.03;;;18.50;52.80;;;;;;5063465;28;20566;-79
2021/05/23 11:41:32;;;;;;;24.47;22.77;;;18.50;52.10;;;;;;5060909;28;20492;-83
2021/05/23 11:43:59;;;;;;;22.87;21.77;;;18.50;52.20;;;;;;5060675;28;20451;-78
2021/05/23 11:46:26;;;;;;;24.60;23.20;;;18.80;51.40;;;;;;5053410;28;20532;-78
2021/05/23 11:48:54;;;;;;;22.77;21.67;;;19.10;51.40;;;;;;5064424;28;20568;-78
2021/05/23 11:51:24;;;;;;;28.53;27.13;;;19.40;50.50;;;;;;5066914;28;20841;-78
2021/05/23 11:53:53;;;;;;;22.53;21.43;;;19.50;48.60;;;;;;5066299;28;20470;-78
2021/05/23 11:56:21;;;;;;;22.80;21.70;;;19.60;48.50;;;;;;5056147;28;20467;-77
2021/05/23 11:58:50;;;;;;;22.97;21.70;;;19.70;48.20;;;;;;5063588;28;20457;-78
2021/05/23 12:01:20;;;;;;;24.23;23.03;;;19.70;47.50;;;;;;5060104;28;20467;-77
2021/05/23 12:04:01;;;;;;;23.80;22.60;;;19.40;48.00;;;;;;5065245;28;20528;-77
2021/05/23 12:06:29;;;;;;;23.90;22.50;;;19.00;47.50;;;;;;5057310;28;20501;-77
2021/05/23 12:09:07;;;;;;;23.00;21.70;;;18.30;48.90;;;;;;5067243;28;20488;-78
2021/05/23 12:11:43;;;;;;;22.17;21.03;;;18.30;49.70;;;;;;5060304;28;21308;-77
2021/05/23 12:14:26;;;;;;;22.70;21.50;;;18.30;49.20;;;;;;5065778;28;20540;-77
2021/05/23 12:17:01;;;;;;;24.03;22.73;;;18.50;50.20;;;;;;5056320;28;20964;-77
2021/05/23 12:19:45;;;;;;;28.60;27.10;;;18.80;51.00;;;;;;5059308;28;20445;-77
2021/05/23 12:22:11;;;;;;;22.50;21.40;;;19.20;50.50;;;;;;5061682;28;20539;-77
2021/05/23 12:24:40;;;;;;;22.90;21.80;;;19.30;49.80;;;;;;5068336;28;20454;-77
2021/05/23 12:27:06;;;;;;;23.80;22.30;;;19.40;48.10;;;;;;5050796;28;20916;-77
2021/05/23 12:29:33;;;;;;;22.50;21.40;;;19.60;47.60;;;;;;5054591;28;21044;-77